Terminal Aerodrome Forecast
Issued by NWS

Home | Current Version | Previous Version | Text Only | Print | Product List | Glossary On
Versions: 1 2 3 4 5 6 7 8 9 10 11 12 13 14 15
000
FTUS43 KMPX 051120
TAFRNH
TAF
KRNH 051120Z 0512/0612 VRB03KT P6SM SKC
     FM051500 24004KT P6SM FEW040
     FM060000 18005KT P6SM SCT150
     FM060500 18007KT P6SM BKN100=

USA.gov is the U.S. government's official web portal to all federal, state and local government web resources and services.